Time;durP1;ratioP1;P1;durP2;ratioP2;P2;SDS_P1;SDS_P2;PMS_P1;PMS_P2;Temp;Humidity;BMP_temperature;BMP_pressure;BME280_temperature;BME280_humidity;BME280_pressure;Samples;Min_cycle;Max_cycle;Signal;HPM_P1;HPM_P2
2022/01/26 00:07:10;;;;;;;41.20;20.55;;;3.80;99.90;;;;;;5108756;28;20065;-55
2022/01/26 00:09:36;;;;;;;46.90;21.55;;;3.70;99.90;;;;;;5109104;28;20082;-56
2022/01/26 00:12:01;;;;;;;40.97;21.25;;;3.70;99.90;;;;;;5107520;28;20034;-56
2022/01/26 00:14:27;;;;;;;41.53;20.48;;;3.70;99.90;;;;;;5108416;28;20040;-51
2022/01/26 00:16:53;;;;;;;45.92;20.35;;;3.70;99.90;;;;;;5107230;28;20398;-52
2022/01/26 00:19:23;;;;;;;43.45;21.63;;;3.70;99.90;;;;;;5108763;28;20024;-54
2022/01/26 00:21:52;;;;;;;40.58;20.75;;;3.70;99.90;;;;;;5108180;28;20399;-59
2022/01/26 00:29:30;;;;;;;47.45;21.20;;;3.70;99.90;;;;;;5108245;28;20074;-51
2022/01/26 00:40:20;;;;;;;38.53;20.05;;;3.60;99.90;;;;;;5106509;28;20027;-54
2022/01/26 00:42:48;;;;;;;39.25;17.85;;;3.70;99.90;;;;;;5107075;28;20028;-54
2022/01/26 00:45:19;;;;;;;39.33;17.77;;;3.70;99.90;;;;;;5105837;28;20020;-52
2022/01/26 00:47:45;;;;;;;39.03;18.88;;;3.60;99.90;;;;;;5108392;28;20491;-53
2022/01/26 00:50:11;;;;;;;32.55;18.15;;;3.60;99.90;;;;;;5107349;28;20030;-54
2022/01/26 00:52:42;;;;;;;39.42;18.30;;;3.60;99.90;;;;;;5105303;28;20073;-56
2022/01/26 00:55:14;;;;;;;38.45;17.92;;;3.60;99.90;;;;;;5107424;28;20027;-53
2022/01/26 00:57:39;;;;;;;35.28;17.38;;;3.60;99.90;;;;;;5107783;28;20027;-55
2022/01/26 01:00:09;;;;;;;34.35;17.85;;;3.60;99.90;;;;;;5107516;28;20027;-54
2022/01/26 01:02:35;;;;;;;31.23;17.08;;;3.60;99.90;;;;;;5107175;28;20019;-51
2022/01/26 01:05:06;;;;;;;36.80;16.60;;;3.60;99.90;;;;;;5107802;28;20395;-51
2022/01/26 01:07:36;;;;;;;32.63;15.57;;;3.60;99.90;;;;;;5107953;28;20026;-54
2022/01/26 01:10:02;;;;;;;38.63;17.13;;;3.50;99.90;;;;;;5105635;28;20016;-53
2022/01/26 01:12:29;;;;;;;37.00;15.93;;;3.60;99.90;;;;;;5106955;28;20053;-54
2022/01/26 01:14:54;;;;;;;31.77;17.02;;;3.60;99.90;;;;;;5107944;28;20019;-57
2022/01/26 01:17:22;;;;;;;28.58;15.52;;;3.60;99.90;;;;;;5105695;28;20529;-52
2022/01/26 01:20:06;;;;;;;29.33;14.75;;;3.60;99.90;;;;;;5107841;28;20011;-52
2022/01/26 01:25:54;;;;;;;30.50;15.15;;;3.50;99.90;;;;;;5107139;28;20019;-49
2022/01/26 01:31:10;;;;;;;31.77;14.95;;;3.50;99.90;;;;;;5080716;28;20051;-52
2022/01/26 01:33:42;;;;;;;29.55;15.13;;;3.50;99.90;;;;;;5106278;28;20506;-53
2022/01/26 01:36:10;;;;;;;27.65;14.65;;;3.50;99.90;;;;;;5106480;28;20039;-51
2022/01/26 01:38:39;;;;;;;27.80;15.07;;;3.50;99.90;;;;;;5107221;28;20119;-52
2022/01/26 01:41:05;;;;;;;26.77;14.02;;;3.50;99.90;;;;;;5106684;28;20634;-55
2022/01/26 01:43:31;;;;;;;32.55;15.77;;;3.50;99.90;;;;;;5106827;28;20031;-58
2022/01/26 01:45:56;;;;;;;31.02;14.73;;;3.50;99.90;;;;;;5107284;28;20039;-55
2022/01/26 01:48:29;;;;;;;35.83;16.42;;;3.50;99.90;;;;;;5106463;28;20510;-53
2022/01/26 01:50:57;;;;;;;26.95;13.75;;;3.50;99.90;;;;;;5106097;28;20035;-51
2022/01/26 01:53:56;;;;;;;33.08;16.13;;;3.40;99.90;;;;;;5111023;28;20038;-51
2022/01/26 01:56:17;;;;;;;30.63;14.95;;;3.40;99.90;;;;;;5107470;28;20050;-50
2022/01/26 01:58:43;;;;;;;33.63;15.18;;;3.50;99.90;;;;;;5108999;28;20096;-50
2022/01/26 02:01:09;;;;;;;33.65;15.18;;;3.40;99.90;;;;;;5107085;28;20499;-51
2022/01/26 02:03:34;;;;;;;33.05;15.82;;;3.40;99.90;;;;;;5106158;28;20767;-52
2022/01/26 02:06:00;;;;;;;29.50;15.75;;;3.50;99.90;;;;;;5111216;28;20066;-53
2022/01/26 02:08:26;;;;;;;36.95;15.40;;;3.40;99.90;;;;;;5110245;28;20068;-54
2022/01/26 02:10:52;;;;;;;29.13;14.80;;;3.40;99.90;;;;;;5110702;28;20038;-53
2022/01/26 02:13:27;;;;;;;32.20;15.88;;;3.40;99.90;;;;;;5109961;28;20154;-55
2022/01/26 02:18:44;;;;;;;31.38;14.70;;;3.40;99.90;;;;;;5110094;28;20032;-51
2022/01/26 02:21:34;;;;;;;32.92;15.63;;;3.40;99.90;;;;;;5109959;28;20068;-54
2022/01/26 03:04:03;;;;;;;36.22;18.05;;;3.40;99.90;;;;;;5110366;28;20027;-55
2022/01/26 03:06:38;;;;;;;33.10;16.90;;;3.40;99.90;;;;;;5110651;28;20023;-56
2022/01/26 03:09:10;;;;;;;33.45;16.58;;;3.40;99.90;;;;;;5110578;28;20035;-52
2022/01/26 03:11:38;;;;;;;43.47;19.42;;;3.40;99.90;;;;;;5109801;28;20115;-53
2022/01/26 03:14:34;;;;;;;36.75;18.50;;;3.40;99.90;;;;;;5109547;28;20027;-54
2022/01/26 03:17:07;;;;;;;40.42;19.35;;;3.40;99.90;;;;;;5109831;28;20081;-53
2022/01/26 03:19:37;;;;;;;38.88;20.20;;;3.40;99.90;;;;;;5109634;28;20019;-56
2022/01/26 03:28:15;;;;;;;38.72;19.75;;;3.40;99.90;;;;;;5109067;28;20534;-56
2022/01/26 03:35:18;;;;;;;49.50;22.40;;;3.30;99.90;;;;;;5109084;28;20038;-53
2022/01/26 03:37:54;;;;;;;54.22;22.38;;;3.30;99.90;;;;;;5109329;28;20031;-53
2022/01/26 03:40:28;;;;;;;44.70;20.75;;;3.40;99.90;;;;;;5109233;28;20024;-52
2022/01/26 03:42:53;;;;;;;50.58;22.60;;;3.40;99.90;;;;;;5109312;28;20035;-50
2022/01/26 03:45:19;;;;;;;53.78;23.38;;;3.40;99.90;;;;;;5108966;28;20024;-55
2022/01/26 03:47:45;;;;;;;48.20;22.30;;;3.40;99.90;;;;;;5109607;28;20109;-60
2022/01/26 03:50:10;;;;;;;57.38;22.38;;;3.40;99.90;;;;;;5109496;28;20102;-50
2022/01/26 03:52:36;;;;;;;42.22;22.17;;;3.30;99.90;;;;;;5108008;28;20032;-50
2022/01/26 03:55:03;;;;;;;54.50;22.33;;;3.30;99.90;;;;;;5109299;28;20027;-50
2022/01/26 03:57:32;;;;;;;47.95;24.67;;;3.30;99.90;;;;;;5106713;28;20110;-57
2022/01/26 03:59:57;;;;;;;42.88;21.08;;;3.30;99.90;;;;;;5109179;28;20514;-56
2022/01/26 04:02:23;;;;;;;49.10;22.27;;;3.40;99.90;;;;;;5107879;28;20031;-58
2022/01/26 04:04:54;;;;;;;46.92;21.58;;;3.30;99.90;;;;;;5109157;28;20108;-50
2022/01/26 04:07:20;;;;;;;49.20;21.60;;;3.30;99.90;;;;;;5107620;28;20161;-49
2022/01/26 04:09:46;;;;;;;54.92;23.58;;;3.30;99.90;;;;;;5108754;28;20489;-56
2022/01/26 04:12:11;;;;;;;55.45;22.20;;;3.30;99.90;;;;;;5107072;28;20032;-56
2022/01/26 04:14:37;;;;;;;44.97;22.02;;;3.40;99.90;;;;;;5107555;28;20023;-50
2022/01/26 04:17:03;;;;;;;51.15;24.10;;;3.30;99.90;;;;;;5109852;28;20030;-52
2022/01/26 04:19:32;;;;;;;47.28;21.75;;;3.30;99.90;;;;;;5108844;28;20034;-50
2022/01/26 04:22:11;;;;;;;46.30;20.60;;;3.30;99.90;;;;;;5107451;28;20426;-53
2022/01/26 04:24:41;;;;;;;41.80;20.15;;;3.30;99.90;;;;;;5108257;28;20022;-53
2022/01/26 04:27:18;;;;;;;44.10;20.65;;;3.30;99.90;;;;;;5107949;28;20099;-51
2022/01/26 04:29:44;;;;;;;46.85;20.80;;;3.30;99.90;;;;;;5108380;28;20045;-52
2022/01/26 04:32:13;;;;;;;48.67;22.58;;;3.30;99.90;;;;;;5107870;28;20035;-55
2022/01/26 04:34:39;;;;;;;39.53;20.23;;;3.30;99.90;;;;;;5105856;28;20027;-53
2022/01/26 04:37:15;;;;;;;42.55;21.83;;;3.30;99.90;;;;;;5108520;28;20541;-51
2022/01/26 04:39:47;;;;;;;;;;;3.30;99.90;;;;;;5108544;28;20558;-50
2022/01/26 04:42:28;;;;;;;42.58;20.92;;;3.30;99.90;;;;;;5106636;28;19919;-52
2022/01/26 04:45:01;;;;;;;46.03;19.92;;;3.30;99.90;;;;;;5107924;28;20028;-51
2022/01/26 04:47:27;;;;;;;42.70;18.52;;;3.20;99.90;;;;;;5107308;28;20522;-54
2022/01/26 04:49:53;;;;;;;39.00;18.05;;;3.20;99.90;;;;;;5107678;28;20031;-51
2022/01/26 04:52:18;;;;;;;42.85;19.80;;;3.20;99.90;;;;;;5107300;28;20529;-54
2022/01/26 04:54:44;;;;;;;40.13;20.80;;;3.20;99.90;;;;;;5107929;28;20039;-50
2022/01/26 04:57:10;;;;;;;40.70;19.27;;;3.20;99.90;;;;;;5106789;28;20039;-50
2022/01/26 04:59:35;;;;;;;44.17;18.85;;;3.20;99.90;;;;;;5106945;28;20389;-54
2022/01/26 05:02:01;;;;;;;39.33;17.65;;;3.20;99.90;;;;;;5106187;28;20028;-53
2022/01/26 05:04:26;;;;;;;37.92;19.02;;;3.20;99.90;;;;;;5107347;28;20108;-50
2022/01/26 05:06:52;;;;;;;37.88;18.63;;;3.20;99.90;;;;;;5107719;28;20027;-50
2022/01/26 05:09:19;;;;;;;42.25;19.90;;;3.20;99.90;;;;;;5106516;28;20093;-55
2022/01/26 05:11:48;;;;;;;37.75;18.77;;;3.10;99.90;;;;;;5107651;28;20027;-51
2022/01/26 05:14:16;;;;;;;35.88;18.45;;;3.10;99.90;;;;;;5107252;28;20058;-60
2022/01/26 05:16:42;;;;;;;36.75;17.17;;;3.20;99.90;;;;;;5107122;28;20023;-52
2022/01/26 05:19:08;;;;;;;51.03;20.73;;;3.20;99.90;;;;;;5107879;28;20023;-52
2022/01/26 05:21:35;;;;;;;41.08;17.45;;;3.10;99.90;;;;;;5108210;28;20016;-56
2022/01/26 05:24:00;;;;;;;41.88;18.38;;;3.20;99.90;;;;;;5107846;28;20023;-52
2022/01/26 05:26:26;;;;;;;32.67;16.95;;;3.10;99.90;;;;;;5106392;28;20413;-52
2022/01/26 05:28:52;;;;;;;44.80;18.95;;;3.20;99.90;;;;;;5107511;28;20032;-51
2022/01/26 05:31:17;;;;;;;37.78;18.33;;;3.10;99.90;;;;;;5107176;28;20066;-57
2022/01/26 05:33:43;;;;;;;39.17;18.52;;;3.10;99.90;;;;;;5107404;28;20034;-52
2022/01/26 05:36:09;;;;;;;39.05;19.33;;;3.10;99.90;;;;;;5107696;28;20047;-50
2022/01/26 05:38:35;;;;;;;41.40;18.70;;;3.10;99.90;;;;;;5107223;28;20027;-50
2022/01/26 05:41:02;;;;;;;36.65;17.85;;;3.10;99.90;;;;;;5108471;28;20020;-52
2022/01/26 05:43:29;;;;;;;41.17;18.48;;;3.10;99.90;;;;;;5107190;28;20028;-51
2022/01/26 05:45:59;;;;;;;41.55;19.60;;;3.10;99.90;;;;;;5098686;28;20027;-52
2022/01/26 05:48:25;;;;;;;40.22;18.27;;;3.10;99.90;;;;;;5106584;28;20072;-51
2022/01/26 05:50:53;;;;;;;36.60;18.35;;;3.10;99.90;;;;;;5107538;28;20429;-54
2022/01/26 05:53:21;;;;;;;40.80;19.52;;;3.10;99.90;;;;;;5107282;28;20120;-54
2022/01/26 05:55:51;;;;;;;39.70;19.48;;;3.10;99.90;;;;;;5105509;28;20514;-56
2022/01/26 05:58:17;;;;;;;37.75;18.73;;;3.10;99.90;;;;;;5106821;28;20042;-53
2022/01/26 06:00:43;;;;;;;41.75;18.58;;;3.10;99.90;;;;;;5106934;28;20554;-56
2022/01/26 06:03:08;;;;;;;46.20;19.50;;;3.10;99.90;;;;;;5107052;28;20055;-51
2022/01/26 06:05:34;;;;;;;32.35;15.80;;;3.10;99.90;;;;;;5107043;28;20329;-53
2022/01/26 06:08:00;;;;;;;40.53;18.02;;;3.10;99.90;;;;;;5106989;28;20024;-51
2022/01/26 06:10:25;;;;;;;37.95;18.63;;;3.00;99.90;;;;;;5106079;28;20063;-54
2022/01/26 06:12:51;;;;;;;39.97;17.98;;;3.00;99.90;;;;;;5107103;28;20042;-58
2022/01/26 06:15:16;;;;;;;42.33;18.52;;;3.00;99.90;;;;;;5107410;28;20034;-50
2022/01/26 06:17:42;;;;;;;42.08;19.25;;;3.00;99.90;;;;;;5106741;28;20031;-52
2022/01/26 06:20:08;;;;;;;39.25;17.65;;;3.00;99.90;;;;;;5107295;28;20016;-54
2022/01/26 06:22:34;;;;;;;45.30;19.60;;;3.00;99.90;;;;;;5106362;28;20027;-54
2022/01/26 06:25:05;;;;;;;39.22;18.73;;;3.10;99.90;;;;;;5106917;28;20378;-53
2022/01/26 06:27:30;;;;;;;40.80;18.67;;;3.00;99.90;;;;;;5105196;28;20167;-54
2022/01/26 06:29:56;;;;;;;40.25;19.63;;;3.00;99.90;;;;;;5107216;28;20024;-55
2022/01/26 06:32:22;;;;;;;39.92;18.40;;;3.00;99.90;;;;;;5106198;28;20028;-54
2022/01/26 06:34:47;;;;;;;43.25;19.85;;;3.00;99.90;;;;;;5106833;28;20047;-56
2022/01/26 06:37:15;;;;;;;45.13;20.23;;;3.00;99.90;;;;;;5106344;28;20521;-50
2022/01/26 06:39:41;;;;;;;39.92;18.63;;;3.00;99.90;;;;;;5109914;28;20385;-53
2022/01/26 06:42:12;;;;;;;43.08;19.55;;;3.00;99.90;;;;;;5111101;28;20023;-53
2022/01/26 06:44:49;;;;;;;38.55;18.17;;;3.00;99.90;;;;;;5108706;28;20059;-52
2022/01/26 06:49:40;;;;;;;38.63;18.20;;;3.00;99.90;;;;;;5110144;28;20076;-54
2022/01/26 06:52:06;;;;;;;44.45;18.80;;;3.00;99.90;;;;;;5110371;28;20055;-55
2022/01/26 06:54:31;;;;;;;41.85;19.70;;;3.00;99.90;;;;;;5111033;28;20169;-50
2022/01/26 06:56:57;;;;;;;37.70;19.08;;;3.00;99.90;;;;;;5109674;28;20032;-51
2022/01/26 06:59:24;;;;;;;40.80;18.17;;;3.00;99.90;;;;;;5111159;28;20024;-53
2022/01/26 07:01:51;;;;;;;40.22;20.23;;;3.00;99.90;;;;;;5109848;28;20020;-54
2022/01/26 07:04:16;;;;;;;44.22;18.42;;;3.00;99.90;;;;;;5109899;28;20405;-55
2022/01/26 07:06:42;;;;;;;41.53;19.58;;;2.90;99.90;;;;;;5110032;28;20027;-54
2022/01/26 07:09:08;;;;;;;41.63;18.85;;;3.00;99.90;;;;;;5110465;28;20498;-50
2022/01/26 07:11:34;;;;;;;34.78;16.98;;;3.00;99.90;;;;;;5109526;28;20707;-56
2022/01/26 07:14:01;;;;;;;34.65;18.17;;;3.00;99.90;;;;;;5110819;28;20408;-54
2022/01/26 07:21:56;;;;;;;40.63;17.73;;;3.00;99.90;;;;;;5109630;28;20026;-51
2022/01/26 07:24:21;;;;;;;42.47;18.52;;;2.90;99.90;;;;;;5109091;28;20487;-55
2022/01/26 07:26:52;;;;;;;39.45;18.05;;;2.90;99.90;;;;;;5109582;28;20075;-54
2022/01/26 07:29:21;;;;;;;36.25;16.77;;;2.90;99.90;;;;;;5108740;28;20023;-56
2022/01/26 07:31:48;;;;;;;39.03;18.30;;;2.90;99.90;;;;;;5109766;28;20016;-58
2022/01/26 07:34:14;;;;;;;37.33;18.85;;;2.90;99.90;;;;;;5109603;28;20028;-56
2022/01/26 07:36:46;;;;;;;37.17;18.00;;;2.90;99.90;;;;;;5108972;28;20020;-53
2022/01/26 07:39:16;;;;;;;36.45;17.73;;;2.90;99.90;;;;;;5107675;28;20045;-57
2022/01/26 07:41:41;;;;;;;39.58;18.33;;;2.90;99.90;;;;;;5108871;28;20015;-56
2022/01/26 07:44:07;;;;;;;39.28;16.88;;;2.90;99.90;;;;;;5108953;28;20027;-51
2022/01/26 07:46:33;;;;;;;39.70;17.88;;;2.90;99.90;;;;;;5109011;28;20399;-52
2022/01/26 07:48:59;;;;;;;40.80;19.55;;;2.90;99.90;;;;;;5108100;28;20023;-56
2022/01/26 07:51:24;;;;;;;43.03;18.50;;;2.90;99.90;;;;;;5106793;28;20682;-50
2022/01/26 07:53:50;;;;;;;35.33;18.10;;;2.90;99.90;;;;;;5108732;28;20015;-54
2022/01/26 07:56:16;;;;;;;45.17;20.35;;;2.90;99.90;;;;;;5108805;28;20124;-53
2022/01/26 07:58:42;;;;;;;37.10;18.73;;;2.90;99.90;;;;;;5108302;28;20107;-54
2022/01/26 08:01:08;;;;;;;38.67;20.55;;;2.90;99.90;;;;;;5108286;28;20026;-49
2022/01/26 08:03:34;;;;;;;40.85;19.05;;;2.90;99.90;;;;;;5108103;28;20024;-52
2022/01/26 08:06:07;;;;;;;41.65;20.02;;;2.90;99.90;;;;;;5109547;28;20042;-55
2022/01/26 08:08:33;;;;;;;36.30;18.40;;;2.90;99.90;;;;;;5108514;28;20015;-53
2022/01/26 08:11:00;;;;;;;41.03;18.48;;;2.90;99.90;;;;;;5109175;28;20368;-54
2022/01/26 08:13:26;;;;;;;37.22;19.65;;;2.90;99.90;;;;;;5106840;28;20019;-53
2022/01/26 08:15:56;;;;;;;44.05;19.85;;;2.80;99.90;;;;;;5110141;28;20034;-51
2022/01/26 08:18:23;;;;;;;38.50;19.10;;;2.80;99.90;;;;;;5107586;28;20020;-52
2022/01/26 08:20:48;;;;;;;41.33;21.17;;;2.90;99.90;;;;;;5108112;28;20072;-51
2022/01/26 08:23:14;;;;;;;41.25;20.98;;;2.80;99.90;;;;;;5108974;28;20027;-51
2022/01/26 08:25:40;;;;;;;37.47;21.13;;;2.80;99.90;;;;;;5108432;28;20024;-56
2022/01/26 08:28:15;;;;;;;45.70;21.48;;;2.80;99.90;;;;;;5108510;28;20103;-54
2022/01/26 08:30:41;;;;;;;44.08;21.52;;;2.80;99.90;;;;;;5108625;28;20099;-50
2022/01/26 08:33:07;;;;;;;43.92;21.88;;;2.80;99.90;;;;;;5108168;28;20015;-52
2022/01/26 08:35:34;;;;;;;40.85;19.70;;;2.80;99.90;;;;;;5107186;28;20035;-51
2022/01/26 08:38:00;;;;;;;41.30;20.30;;;2.80;99.90;;;;;;5107803;28;20102;-52
2022/01/26 08:40:26;;;;;;;41.42;21.27;;;2.80;99.90;;;;;;5107715;28;20462;-50
2022/01/26 08:42:52;;;;;;;43.08;20.65;;;2.80;99.90;;;;;;5107890;28;20778;-53
2022/01/26 08:45:18;;;;;;;36.67;20.08;;;2.80;99.90;;;;;;5108544;28;20043;-52
2022/01/26 08:47:44;;;;;;;43.10;22.38;;;2.80;99.90;;;;;;5107629;28;20062;-55
2022/01/26 08:50:10;;;;;;;45.90;21.48;;;2.80;99.90;;;;;;5106905;28;20024;-52
2022/01/26 08:52:36;;;;;;;48.25;21.35;;;2.90;99.90;;;;;;5107268;28;20031;-57
2022/01/26 08:55:03;;;;;;;40.50;22.15;;;2.80;99.90;;;;;;5108390;28;20031;-57
2022/01/26 08:57:29;;;;;;;49.25;23.38;;;2.80;99.90;;;;;;5107168;28;20027;-51
2022/01/26 08:59:54;;;;;;;49.00;23.33;;;2.80;99.90;;;;;;5108092;28;20023;-53
2022/01/26 09:02:20;;;;;;;46.47;22.52;;;2.80;99.90;;;;;;5107406;28;20107;-57
2022/01/26 09:04:46;;;;;;;46.95;23.48;;;2.80;99.90;;;;;;5107795;28;20095;-53
2022/01/26 09:07:14;;;;;;;45.22;23.33;;;2.80;99.90;;;;;;5108115;28;20027;-53
2022/01/26 09:09:44;;;;;;;44.53;21.10;;;2.80;99.90;;;;;;5107189;28;20115;-52
2022/01/26 09:12:16;;;;;;;53.22;22.95;;;2.80;99.90;;;;;;5107612;28;20031;-57
2022/01/26 09:14:42;;;;;;;56.05;24.73;;;2.80;99.90;;;;;;5107495;28;20368;-50
2022/01/26 09:17:10;;;;;;;48.00;23.13;;;2.80;99.90;;;;;;5108067;28;20047;-50
2022/01/26 09:19:36;;;;;;;50.45;22.58;;;2.80;99.90;;;;;;5106802;28;20020;-52
2022/01/26 09:22:07;;;;;;;54.20;24.65;;;2.80;99.90;;;;;;5107616;28;20100;-55
2022/01/26 09:24:35;;;;;;;54.78;24.38;;;2.80;99.90;;;;;;5107077;28;20020;-53
2022/01/26 09:27:02;;;;;;;48.45;24.58;;;2.80;99.90;;;;;;5106981;28;20023;-53
2022/01/26 09:29:28;;;;;;;50.60;26.00;;;2.80;99.90;;;;;;5107345;28;20031;-50
2022/01/26 09:31:54;;;;;;;53.13;24.05;;;2.80;99.90;;;;;;5107742;28;20080;-54
2022/01/26 09:34:23;;;;;;;55.22;25.10;;;2.80;99.90;;;;;;5107135;28;20035;-58
2022/01/26 09:36:49;;;;;;;51.90;25.33;;;2.80;99.90;;;;;;5108444;28;20023;-51
2022/01/26 09:39:18;;;;;;;49.53;23.73;;;2.80;99.90;;;;;;5107886;28;20505;-54
2022/01/26 09:41:46;;;;;;;55.45;25.98;;;2.90;99.90;;;;;;5106536;28;20016;-55
2022/01/26 09:44:13;;;;;;;50.15;22.75;;;2.90;99.90;;;;;;5106876;28;20107;-51
2022/01/26 09:46:39;;;;;;;61.85;26.77;;;2.90;99.90;;;;;;5105829;28;20015;-51
2022/01/26 09:49:05;;;;;;;54.55;25.38;;;2.90;99.90;;;;;;5106692;28;20194;-54
2022/01/26 09:51:39;;;;;;;60.67;26.17;;;2.90;99.90;;;;;;5107618;28;20102;-49
2022/01/26 09:54:09;;;;;;;54.47;27.73;;;2.90;99.90;;;;;;5107402;28;20058;-53
2022/01/26 09:56:35;;;;;;;62.65;26.50;;;2.90;99.90;;;;;;5107121;28;20171;-54
2022/01/26 09:59:00;;;;;;;54.55;25.20;;;2.90;99.90;;;;;;5106008;28;20028;-51
2022/01/26 10:01:26;;;;;;;56.38;24.60;;;2.90;99.90;;;;;;5106993;28;20030;-51
2022/01/26 10:03:52;;;;;;;57.65;26.52;;;2.90;99.90;;;;;;5106538;28;20099;-55
2022/01/26 10:06:27;;;;;;;58.33;26.25;;;2.90;99.90;;;;;;5106841;28;20032;-56
2022/01/26 10:19:04;;;;;;;55.67;26.00;;;2.90;99.90;;;;;;5111572;28;20023;-52
2022/01/26 10:21:30;;;;;;;50.72;24.20;;;2.90;99.90;;;;;;5109642;28;20023;-51
2022/01/26 10:24:07;;;;;;;55.05;26.33;;;2.90;99.90;;;;;;5110695;28;20023;-51
2022/01/26 10:26:33;;;;;;;50.65;25.45;;;2.90;99.90;;;;;;5110130;28;20110;-52
2022/01/26 10:29:03;;;;;;;55.28;26.02;;;2.90;99.90;;;;;;5110144;28;20152;-57
2022/01/26 10:31:39;;;;;;;49.40;24.80;;;2.90;99.90;;;;;;5110137;28;20031;-51
2022/01/26 10:34:12;;;;;;;50.55;25.33;;;2.90;99.90;;;;;;5109174;28;20048;-51
2022/01/26 10:36:44;;;;;;;57.53;24.33;;;2.90;99.90;;;;;;5109780;28;20039;-56
2022/01/26 10:39:13;;;;;;;54.88;25.20;;;2.90;99.90;;;;;;5110741;28;20030;-54
2022/01/26 10:41:42;;;;;;;52.40;26.58;;;2.90;99.90;;;;;;5110061;28;20026;-53
2022/01/26 10:44:08;;;;;;;50.33;25.00;;;2.80;99.90;;;;;;5110175;28;20020;-52
2022/01/26 10:46:42;;;;;;;53.10;25.08;;;2.80;99.90;;;;;;5109984;28;20034;-55
2022/01/26 10:52:01;;;;;;;50.10;24.65;;;2.80;99.90;;;;;;5109845;28;20111;-54
2022/01/26 10:54:37;;;;;;;47.03;23.17;;;2.80;99.90;;;;;;5110431;28;20035;-55
2022/01/26 10:57:04;;;;;;;56.17;24.30;;;2.70;99.90;;;;;;5108468;28;20036;-50
2022/01/26 10:59:32;;;;;;;56.67;25.60;;;2.70;99.90;;;;;;5109446;28;20030;-56
2022/01/26 11:02:01;;;;;;;48.47;22.48;;;2.70;99.90;;;;;;5109517;28;20015;-51
2022/01/26 11:04:27;;;;;;;50.30;23.73;;;2.70;99.90;;;;;;5109886;28;20099;-50
2022/01/26 11:06:54;;;;;;;54.40;24.35;;;2.70;99.90;;;;;;5110783;28;20035;-54
2022/01/26 11:09:25;;;;;;;43.47;22.65;;;2.70;99.90;;;;;;5110352;28;20446;-52
2022/01/26 11:12:08;;;;;;;49.03;24.52;;;2.70;99.90;;;;;;5110458;28;20120;-57
2022/01/26 11:14:45;;;;;;;55.60;24.15;;;2.70;99.90;;;;;;5109679;28;20038;-53
2022/01/26 11:17:27;;;;;;;53.88;21.50;;;2.70;99.90;;;;;;5109861;28;20118;-54
2022/01/26 11:19:56;;;;;;;49.65;21.92;;;2.60;99.90;;;;;;5109839;28;20084;-51
2022/01/26 11:22:27;;;;;;;51.03;23.00;;;2.70;99.90;;;;;;5109742;28;20556;-55
2022/01/26 11:24:53;;;;;;;52.85;23.27;;;2.70;99.90;;;;;;5109721;28;20110;-54
2022/01/26 11:27:19;;;;;;;50.72;23.00;;;2.70;99.90;;;;;;5110215;28;20039;-50
2022/01/26 11:29:50;;;;;;;49.55;23.15;;;2.70;99.90;;;;;;5109019;28;20395;-53
2022/01/26 11:32:37;;;;;;;47.28;21.50;;;2.70;99.90;;;;;;5110381;28;20605;-52
2022/01/26 11:35:08;;;;;;;49.85;21.17;;;2.70;99.90;;;;;;5107630;28;20024;-57
2022/01/26 11:37:43;;;;;;;48.42;21.48;;;2.70;99.90;;;;;;5106985;28;20027;-51
2022/01/26 11:45:25;;;;;;;58.38;24.75;;;2.70;99.90;;;;;;5108603;28;20024;-55
2022/01/26 11:47:59;;;;;;;48.78;22.08;;;2.70;99.90;;;;;;5106399;28;20031;-56
2022/01/26 11:50:25;;;;;;;55.28;23.48;;;2.70;99.90;;;;;;5107195;28;20027;-51
2022/01/26 11:53:07;;;;;;;49.88;21.02;;;2.70;99.90;;;;;;5107701;28;20015;-50
2022/01/26 11:55:43;;;;;;;49.25;21.67;;;2.60;99.90;;;;;;5108345;28;20040;-52
2022/01/26 11:58:14;;;;;;;45.90;22.70;;;2.70;99.90;;;;;;5108746;28;20019;-54
2022/01/26 12:00:52;;;;;;;51.53;21.10;;;2.60;99.90;;;;;;5107396;28;20049;-54
2022/01/26 12:03:29;;;;;;;52.58;21.42;;;2.60;99.90;;;;;;5107951;28;20015;-51
2022/01/26 12:05:57;;;;;;;50.60;21.40;;;2.60;99.90;;;;;;5108538;28;20051;-56
2022/01/26 12:08:35;;;;;;;49.70;21.90;;;2.70;99.90;;;;;;5109186;28;20487;-51
2022/01/26 12:11:02;;;;;;;52.30;21.48;;;2.60;99.90;;;;;;5108608;28;20096;-50
2022/01/26 12:13:30;;;;;;;51.42;22.02;;;2.70;99.90;;;;;;5109343;28;20026;-57
2022/01/26 12:16:09;;;;;;;50.22;22.52;;;2.70;99.90;;;;;;5108682;28;20513;-52
2022/01/26 12:18:43;;;;;;;45.70;21.08;;;2.60;99.90;;;;;;5108466;28;20020;-52
2022/01/26 12:35:32;;;;;;;57.33;23.50;;;2.70;99.90;;;;;;5108168;28;20114;-54
2022/01/26 12:43:47;;;;;;;46.20;21.15;;;2.70;99.90;;;;;;5107883;28;20030;-52
2022/01/26 12:46:16;;;;;;;60.70;24.52;;;2.70;99.90;;;;;;5108522;28;20016;-56
2022/01/26 12:48:51;;;;;;;50.75;22.60;;;2.70;99.90;;;;;;5107163;28;20406;-52
2022/01/26 12:51:17;;;;;;;52.00;22.17;;;2.70;99.90;;;;;;5109108;28;20479;-52
2022/01/26 12:53:43;;;;;;;59.45;23.98;;;2.70;99.90;;;;;;5108210;28;20061;-52
2022/01/26 12:56:12;;;;;;;55.28;23.80;;;2.70;99.90;;;;;;5108305;28;20062;-53
2022/01/26 12:58:41;;;;;;;54.67;21.95;;;2.70;99.90;;;;;;5107319;28;20031;-54
2022/01/26 13:01:24;;;;;;;56.47;25.10;;;2.70;99.90;;;;;;5108177;28;20024;-53
2022/01/26 13:04:00;;;;;;;54.67;23.58;;;2.70;99.90;;;;;;5107710;28;20024;-52
2022/01/26 13:06:34;;;;;;;64.10;24.42;;;2.80;99.90;;;;;;5107719;28;20105;-54
2022/01/26 13:09:01;;;;;;;58.63;24.70;;;2.80;99.90;;;;;;5108448;28;20115;-56
2022/01/26 13:11:32;;;;;;;49.38;22.58;;;2.70;99.90;;;;;;5106223;28;20414;-50
2022/01/26 13:14:18;;;;;;;53.00;22.92;;;2.80;99.90;;;;;;5107913;28;20027;-51
2022/01/26 13:19:45;;;;;;;50.03;24.65;;;2.80;99.90;;;;;;5107296;28;20034;-52
2022/01/26 13:39:37;;;;;;;66.75;25.98;;;2.70;99.90;;;;;;5107483;28;20023;-53
2022/01/26 13:45:26;;;;;;;56.72;25.67;;;2.70;99.90;;;;;;5107278;28;20057;-50
2022/01/26 13:47:56;;;;;;;58.22;24.05;;;2.70;99.90;;;;;;5107663;28;20669;-53
2022/01/26 13:53:11;;;;;;;68.65;25.65;;;2.70;99.90;;;;;;5110315;28;20171;-55
2022/01/26 14:01:15;;;;;;;57.38;25.35;;;2.70;99.90;;;;;;5098459;28;20076;-54
2022/01/26 14:03:42;;;;;;;63.07;25.53;;;2.70;99.90;;;;;;5110382;28;20031;-57
2022/01/26 14:06:09;;;;;;;62.88;25.02;;;2.70;99.90;;;;;;5111743;28;20744;-53
2022/01/26 14:08:35;;;;;;;65.55;29.10;;;2.70;99.90;;;;;;5111588;28;20514;-51
2022/01/26 14:11:00;;;;;;;66.80;31.25;;;2.80;99.90;;;;;;5111719;28;20027;-53
2022/01/26 14:13:27;;;;;;;75.00;36.35;;;2.80;99.90;;;;;;5110807;28;20032;-53
2022/01/26 14:15:55;;;;;;;70.28;30.27;;;2.80;99.90;;;;;;5109520;28;20045;-49
2022/01/26 14:20:50;;;;;;;76.38;38.38;;;2.80;99.90;;;;;;5109545;28;20106;-52
2022/01/26 14:25:51;;;;;;;58.63;26.98;;;2.80;99.90;;;;;;5110369;28;20391;-57
2022/01/26 14:28:20;;;;;;;65.50;29.48;;;2.90;99.90;;;;;;5111193;28;20024;-53
2022/01/26 14:33:51;;;;;;;69.07;31.67;;;2.80;99.90;;;;;;5085800;28;20050;-54
2022/01/26 14:54:09;;;;;;;59.53;25.73;;;2.90;99.90;;;;;;5110417;28;20031;-53
2022/01/26 14:56:02;;;;;;;67.07;30.45;;;3.00;99.90;;;;;;5100251;28;20188;-55
2022/01/26 15:29:56;;;;;;;59.38;24.83;;;3.10;99.90;;;;;;5109381;28;20506;-56
2022/01/26 15:33:34;;;;;;;50.40;23.13;;;3.10;99.90;;;;;;5109777;28;20055;-51
2022/01/26 15:44:19;;;;;;;53.67;24.63;;;3.10;99.90;;;;;;5110313;28;20517;-55
2022/01/26 15:52:09;;;;;;;67.80;27.50;;;3.20;99.90;;;;;;5109185;28;20023;-50
2022/01/26 16:07:51;;;;;;;61.60;24.60;;;3.30;99.90;;;;;;5109451;28;20487;-56
2022/01/26 17:26:36;;;;;;;73.32;29.58;;;3.50;99.90;;;;;;5108263;28;20039;-54
2022/01/26 18:16:58;;;;;;;75.32;33.08;;;3.80;99.90;;;;;;5105349;28;20028;-55
2022/01/26 18:33:13;;;;;;;73.93;30.30;;;3.90;99.90;;;;;;5103704;28;20056;-56
2022/01/26 18:51:42;;;;;;;66.72;28.58;;;3.90;99.90;;;;;;5110692;28;20084;-56
2022/01/26 18:54:09;;;;;;;69.82;27.92;;;3.90;99.90;;;;;;5110769;28;20396;-53
2022/01/26 18:56:35;;;;;;;74.10;30.58;;;3.90;99.90;;;;;;5109739;28;20035;-55
2022/01/26 18:59:01;;;;;;;69.93;29.75;;;3.90;99.90;;;;;;5110227;28;20032;-56
2022/01/26 19:01:27;;;;;;;74.88;29.23;;;3.90;99.90;;;;;;5111917;28;20037;-55
2022/01/26 19:03:54;;;;;;;60.38;28.67;;;4.00;99.90;;;;;;5109951;28;20097;-51
2022/01/26 19:06:19;;;;;;;93.03;39.70;;;3.90;99.90;;;;;;5109651;28;20036;-53
2022/01/26 19:08:45;;;;;;;105.82;45.00;;;4.00;99.90;;;;;;5109180;28;20724;-57
2022/01/26 19:11:12;;;;;;;79.75;32.72;;;4.00;99.90;;;;;;5110531;28;20046;-53
2022/01/26 19:13:41;;;;;;;69.57;29.73;;;4.00;99.90;;;;;;5110378;28;20090;-54
2022/01/26 19:22:36;;;;;;;66.97;27.80;;;4.00;99.90;;;;;;5109730;28;20024;-53
2022/01/26 19:26:58;;;;;;;71.97;30.63;;;4.00;99.90;;;;;;5109650;28;20030;-54
2022/01/26 19:41:04;;;;;;;71.43;30.65;;;4.00;99.90;;;;;;5108812;28;20046;-54